Time;durP1;ratioP1;P1;durP2;ratioP2;P2;SDS_P1;SDS_P2;PMS_P1;PMS_P2;Temp;Humidity;BMP_temperature;BMP_pressure;BME280_temperature;BME280_humidity;BME280_pressure;Samples;Min_cycle;Max_cycle;Signal;HPM_P1;HPM_P2
2022/01/30 00:00:00;;;;;;;18.63;9.40;;;;;;;;;;5045327;28;20071;-47
2022/01/30 00:02:27;;;;;;;17.45;8.50;;;;;;;;;;5026285;28;20045;-48
2022/01/30 00:04:54;;;;;;;17.80;9.32;;;;;;;;;;5026099;28;20069;-48
2022/01/30 00:07:20;;;;;;;20.50;9.65;;;;;;;;;;5026681;28;20087;-46
2022/01/30 00:09:48;;;;;;;19.50;9.65;;;;;;;;;;5025884;28;20382;-46
2022/01/30 00:12:16;;;;;;;19.52;9.57;;;;;;;;;;5025160;28;20057;-50
2022/01/30 00:14:43;;;;;;;18.08;8.88;;;;;;;;;;5026073;28;20038;-46
2022/01/30 00:17:16;;;;;;;15.88;8.77;;;;;;;;;;5026159;28;20052;-46
2022/01/30 00:19:57;;;;;;;18.55;10.00;;;;;;;;;;5045721;28;20563;-48
2022/01/30 00:25:04;;;;;;;17.67;8.75;;;;;;;;;;5038914;28;20439;-50
2022/01/30 00:27:33;;;;;;;19.25;9.43;;;;;;;;;;5026085;28;20033;-49
2022/01/30 00:30:02;;;;;;;18.90;9.60;;;;;;;;;;5025906;28;20061;-49
2022/01/30 00:32:28;;;;;;;20.40;10.30;;;;;;;;;;5025977;28;20109;-47
2022/01/30 00:34:54;;;;;;;22.25;10.20;;;;;;;;;;5025514;28;20671;-51
2022/01/30 00:37:22;;;;;;;17.98;9.35;;;;;;;;;;5024396;28;20021;-47
2022/01/30 00:39:48;;;;;;;20.35;9.23;;;;;;;;;;5036654;28;20477;-48
2022/01/30 00:42:14;;;;;;;24.85;11.90;;;;;;;;;;5025899;28;20100;-50
2022/01/30 00:44:40;;;;;;;23.58;12.05;;;;;;;;;;5037278;28;20040;-48
2022/01/30 00:47:08;;;;;;;23.95;11.30;;;;;;;;;;5046352;28;20025;-50
2022/01/30 00:49:34;;;;;;;19.25;9.32;;;;;;;;;;5044467;28;20032;-51
2022/01/30 00:52:01;;;;;;;21.33;10.05;;;;;;;;;;5045023;28;20043;-44
2022/01/30 00:54:28;;;;;;;21.75;10.88;;;;;;;;;;5045594;28;20033;-48
2022/01/30 00:56:54;;;;;;;18.83;10.18;;;;;;;;;;5032883;28;20029;-45
2022/01/30 00:59:20;;;;;;;21.08;10.55;;;;;;;;;;5025609;28;20108;-48
2022/01/30 01:01:46;;;;;;;17.67;9.52;;;;;;;;;;5037392;28;20507;-49
2022/01/30 01:04:12;;;;;;;19.52;10.20;;;;;;;;;;5065166;28;20454;-48
2022/01/30 01:06:39;;;;;;;19.73;9.75;;;;;;;;;;5065647;28;20377;-46
2022/01/30 01:09:07;;;;;;;17.58;9.48;;;;;;;;;;5049023;28;20029;-46
2022/01/30 01:20:58;;;;;;;17.88;9.25;;;;;;;;;;5025304;28;20079;-46
2022/01/30 01:24:43;;;;;;;13.82;7.68;;;;;;;;;;5024270;28;20116;-46
2022/01/30 01:27:10;;;;;;;15.30;8.02;;;;;;;;;;5025247;28;20296;-46
2022/01/30 01:29:37;;;;;;;13.15;7.05;;;;;;;;;;5025083;28;20068;-49
2022/01/30 01:32:04;;;;;;;12.85;6.97;;;;;;;;;;5025305;28;20493;-46
2022/01/30 01:34:33;;;;;;;12.70;7.40;;;;;;;;;;5023479;28;20024;-47
2022/01/30 01:37:01;;;;;;;16.92;8.68;;;;;;;;;;5024777;28;20034;-54
2022/01/30 01:39:27;;;;;;;16.83;8.18;;;;;;;;;;5024725;28;20018;-48
2022/01/30 01:41:53;;;;;;;12.65;7.18;;;;;;;;;;5026295;28;20048;-47
2022/01/30 01:44:29;;;;;;;16.05;7.72;;;;;;;;;;5030314;28;20108;-46
2022/01/30 01:46:55;;;;;;;13.82;6.80;;;;;;;;;;5022495;28;20026;-48
2022/01/30 01:49:27;;;;;;;12.73;7.03;;;;;;;;;;5024611;28;20493;-46
2022/01/30 01:52:14;;;;;;;12.18;6.07;;;;;;;;;;5024388;28;20071;-47
2022/01/30 01:54:40;;;;;;;12.90;6.53;;;;;;;;;;5023970;28;20086;-46
2022/01/30 01:57:06;;;;;;;13.57;6.80;;;;;;;;;;5030978;28;20163;-46
2022/01/30 01:59:32;;;;;;;17.10;7.75;;;;;;;;;;5043624;28;20055;-48
2022/01/30 02:02:01;;;;;;;16.80;8.20;;;;;;;;;;5035755;28;20025;-49
2022/01/30 02:04:27;;;;;;;14.57;6.97;;;;;;;;;;5023752;28;20017;-47
2022/01/30 02:07:06;;;;;;;16.20;8.63;;;;;;;;;;5022794;28;20083;-47
2022/01/30 02:09:33;;;;;;;15.55;8.45;;;;;;;;;;5024609;28;20033;-45
2022/01/30 02:12:01;;;;;;;14.18;7.20;;;;;;;;;;5024147;28;20040;-45
2022/01/30 02:14:38;;;;;;;12.07;6.57;;;;;;;;;;5022770;28;20034;-47
2022/01/30 02:25:40;;;;;;;;;;;;;;;;;;5034100;28;20116;-49
2022/01/30 02:28:11;;;;;;;9.88;5.20;;;;;;;;;;5025725;28;20359;-48
2022/01/30 02:30:40;;;;;;;10.02;5.55;;;;;;;;;;5024793;28;20071;-46
2022/01/30 02:33:06;;;;;;;10.93;5.63;;;;;;;;;;5025120;28;20512;-49
2022/01/30 02:35:32;;;;;;;9.90;5.57;;;;;;;;;;5024373;28;20485;-49
2022/01/30 02:38:00;;;;;;;9.10;5.05;;;;;;;;;;5025027;28;20033;-49
2022/01/30 02:40:27;;;;;;;9.57;5.15;;;;;;;;;;5030518;28;20083;-47
2022/01/30 02:42:54;;;;;;;10.48;5.65;;;;;;;;;;5044084;28;20599;-49
2022/01/30 02:45:24;;;;;;;9.70;5.82;;;;;;;;;;5043932;28;20558;-48
2022/01/30 02:48:15;;;;;;;10.02;6.13;;;;;;;;;;5044536;28;20029;-47
2022/01/30 02:53:13;;;;;;;9.68;5.70;;;;;;;;;;5044474;28;20044;-46
2022/01/30 02:55:39;;;;;;;9.43;5.50;;;;;;;;;;5043278;28;20112;-48
2022/01/30 02:58:05;;;;;;;9.50;5.47;;;;;;;;;;5044854;28;20079;-48
2022/01/30 03:00:32;;;;;;;8.63;4.85;;;;;;;;;;5025092;28;20033;-47
2022/01/30 03:02:59;;;;;;;8.15;4.97;;;;;;;;;;5024315;28;20445;-48
2022/01/30 03:05:25;;;;;;;8.45;4.80;;;;;;;;;;5024273;28;20034;-48
2022/01/30 03:07:52;;;;;;;6.88;3.78;;;;;;;;;;5024082;28;20043;-49
2022/01/30 03:10:18;;;;;;;6.32;4.05;;;;;;;;;;5024138;28;20018;-50
2022/01/30 03:12:44;;;;;;;7.85;4.32;;;;;;;;;;5024228;28;20378;-47
2022/01/30 03:15:10;;;;;;;7.20;3.90;;;;;;;;;;5026336;28;20033;-48
2022/01/30 03:17:36;;;;;;;8.57;4.32;;;;;;;;;;5028911;28;20477;-47
2022/01/30 03:20:04;;;;;;;7.45;4.32;;;;;;;;;;5028696;28;20520;-46
2022/01/30 03:22:30;;;;;;;6.70;3.92;;;;;;;;;;5027776;28;20033;-49
2022/01/30 03:24:57;;;;;;;7.80;4.28;;;;;;;;;;5027636;28;20036;-50
2022/01/30 03:27:24;;;;;;;15.88;8.45;;;;;;;;;;5043614;28;20430;-46
2022/01/30 03:30:01;;;;;;;15.93;8.20;;;;;;;;;;5045718;28;20086;-48
2022/01/30 03:32:27;;;;;;;15.80;8.88;;;;;;;;;;5047597;28;20111;-48
2022/01/30 03:34:53;;;;;;;13.82;7.30;;;;;;;;;;5047461;28;20115;-47
2022/01/30 03:37:20;;;;;;;13.23;6.80;;;;;;;;;;5047399;28;20206;-48
2022/01/30 03:39:46;;;;;;;11.18;6.15;;;;;;;;;;5046263;28;20025;-47
2022/01/30 03:42:12;;;;;;;11.00;6.10;;;;;;;;;;5047629;28;20070;-49
2022/01/30 03:44:38;;;;;;;11.05;6.10;;;;;;;;;;5047321;28;20074;-47
2022/01/30 03:47:05;;;;;;;9.73;5.75;;;;;;;;;;5047684;28;20025;-48
2022/01/30 03:49:31;;;;;;;9.63;5.35;;;;;;;;;;5047417;28;20252;-47
2022/01/30 03:51:58;;;;;;;9.10;5.38;;;;;;;;;;5047148;28;20097;-48
2022/01/30 03:54:25;;;;;;;8.68;5.38;;;;;;;;;;5028283;28;20148;-46
2022/01/30 03:56:52;;;;;;;8.93;5.32;;;;;;;;;;5026968;28;20528;-46
2022/01/30 03:59:18;;;;;;;8.30;4.93;;;;;;;;;;5027057;28;20021;-47
2022/01/30 04:01:45;;;;;;;9.05;5.47;;;;;;;;;;5026635;28;20144;-50
2022/01/30 04:04:11;;;;;;;9.48;5.72;;;;;;;;;;5027598;28;20030;-49
2022/01/30 04:06:37;;;;;;;9.48;5.53;;;;;;;;;;5027677;28;20021;-46
2022/01/30 04:09:05;;;;;;;11.35;6.38;;;;;;;;;;5045054;28;20040;-49
2022/01/30 04:11:31;;;;;;;11.75;6.82;;;;;;;;;;5047132;28;20025;-48
2022/01/30 04:13:57;;;;;;;10.18;5.90;;;;;;;;;;5046631;28;20186;-46
2022/01/30 04:16:23;;;;;;;10.38;6.00;;;;;;;;;;5046953;28;20025;-50
2022/01/30 04:18:49;;;;;;;9.57;5.50;;;;;;;;;;5046781;28;20033;-47
2022/01/30 04:21:15;;;;;;;9.45;5.25;;;;;;;;;;5034763;28;20075;-47
2022/01/30 04:23:41;;;;;;;7.80;4.97;;;;;;;;;;5026681;28;20374;-49
2022/01/30 04:26:07;;;;;;;10.43;5.43;;;;;;;;;;5026364;28;20037;-47
2022/01/30 04:28:33;;;;;;;9.10;5.28;;;;;;;;;;5026632;28;20025;-48
2022/01/30 04:31:00;;;;;;;11.52;6.10;;;;;;;;;;5026594;28;20053;-50
2022/01/30 04:33:26;;;;;;;11.43;6.82;;;;;;;;;;5026616;28;20064;-48
2022/01/30 04:35:52;;;;;;;13.07;7.35;;;;;;;;;;5035361;28;20056;-46
2022/01/30 04:38:24;;;;;;;15.13;7.90;;;;;;;;;;5046513;28;20036;-49
2022/01/30 04:57:40;;;;;;;11.57;6.38;;;;;;;;;;5045789;28;20031;-49
2022/01/30 05:08:17;;;;;;;12.70;6.55;;;;;;;;;;5025869;28;20524;-47
2022/01/30 05:10:44;;;;;;;11.85;5.90;;;;;;;;;;5025494;28;20025;-48
2022/01/30 05:13:15;;;;;;;12.13;6.45;;;;;;;;;;5025741;28;20047;-45
2022/01/30 05:15:43;;;;;;;11.63;6.65;;;;;;;;;;5025515;28;20025;-49
2022/01/30 05:18:09;;;;;;;12.38;6.65;;;;;;;;;;5025722;28;20507;-50
2022/01/30 05:20:36;;;;;;;10.82;5.88;;;;;;;;;;5025916;28;20048;-48
2022/01/30 05:23:02;;;;;;;11.02;5.70;;;;;;;;;;5025624;28;20028;-50
2022/01/30 05:25:28;;;;;;;12.45;6.78;;;;;;;;;;5025737;28;20029;-47
2022/01/30 05:27:54;;;;;;;12.68;6.78;;;;;;;;;;5025102;28;20429;-48
2022/01/30 05:30:20;;;;;;;14.73;7.70;;;;;;;;;;5025104;28;20141;-50
2022/01/30 05:32:46;;;;;;;13.55;7.32;;;;;;;;;;5025111;28;20029;-50
2022/01/30 05:35:13;;;;;;;12.93;7.30;;;;;;;;;;5025479;28;20033;-48
2022/01/30 05:37:42;;;;;;;13.07;7.28;;;;;;;;;;5024468;28;20386;-48
2022/01/30 05:40:08;;;;;;;13.48;7.07;;;;;;;;;;5025125;28;20808;-47
2022/01/30 05:42:36;;;;;;;12.70;6.82;;;;;;;;;;5025545;28;20026;-46
2022/01/30 05:47:45;;;;;;;14.95;8.73;;;;;;;;;;5024892;28;20042;-47
2022/01/30 05:50:12;;;;;;;17.65;9.07;;;;;;;;;;5025230;28;20037;-48
2022/01/30 05:52:38;;;;;;;21.88;11.00;;;;;;;;;;5024849;28;20025;-47
2022/01/30 05:55:04;;;;;;;21.88;10.90;;;;;;;;;;5025509;28;20032;-48
2022/01/30 05:57:30;;;;;;;19.45;10.38;;;;;;;;;;5037374;28;20120;-47
2022/01/30 05:59:56;;;;;;;21.92;10.60;;;;;;;;;;5042526;28;20032;-50
2022/01/30 06:02:23;;;;;;;20.33;10.60;;;;;;;;;;5025591;28;20022;-46
2022/01/30 06:04:49;;;;;;;21.75;11.95;;;;;;;;;;5026317;28;20519;-47
2022/01/30 06:07:15;;;;;;;22.48;10.90;;;;;;;;;;5026613;28;20045;-46
2022/01/30 06:09:41;;;;;;;23.35;12.05;;;;;;;;;;5025088;28;20036;-46
2022/01/30 06:12:08;;;;;;;27.67;13.90;;;;;;;;;;5026561;28;20412;-48
2022/01/30 06:14:34;;;;;;;27.40;13.55;;;;;;;;;;5026659;28;20036;-46
2022/01/30 06:17:00;;;;;;;27.90;14.43;;;;;;;;;;5026478;28;20437;-49
2022/01/30 06:19:26;;;;;;;29.63;15.07;;;;;;;;;;5026640;28;20485;-47
2022/01/30 06:21:53;;;;;;;29.17;14.75;;;;;;;;;;5026302;28;20041;-47
2022/01/30 06:24:19;;;;;;;28.15;14.20;;;;;;;;;;5026161;28;20025;-47
2022/01/30 06:26:45;;;;;;;27.58;14.43;;;;;;;;;;5026352;28;20417;-47
2022/01/30 06:29:11;;;;;;;27.05;14.93;;;;;;;;;;5026561;28;20041;-46
2022/01/30 06:31:37;;;;;;;26.45;14.02;;;;;;;;;;5025758;28;20044;-45
2022/01/30 06:34:03;;;;;;;27.90;14.90;;;;;;;;;;5026368;28;20075;-48
2022/01/30 06:36:29;;;;;;;33.42;15.13;;;;;;;;;;5026400;28;20034;-49
2022/01/30 06:38:56;;;;;;;28.58;14.10;;;;;;;;;;5026073;28;20022;-48
2022/01/30 06:41:22;;;;;;;24.45;12.60;;;;;;;;;;5025568;28;20026;-49
2022/01/30 06:43:48;;;;;;;25.60;13.40;;;;;;;;;;5026170;28;20033;-47
2022/01/30 06:46:15;;;;;;;22.90;12.32;;;;;;;;;;5025853;28;20034;-48
2022/01/30 06:48:42;;;;;;;23.33;12.70;;;;;;;;;;5043143;28;20108;-48
2022/01/30 06:51:08;;;;;;;22.05;11.48;;;;;;;;;;5051830;28;20033;-47
2022/01/30 06:53:34;;;;;;;23.40;11.88;;;;;;;;;;5051037;28;20112;-48
2022/01/30 06:56:00;;;;;;;20.98;11.27;;;;;;;;;;5046099;28;20071;-49
2022/01/30 06:58:26;;;;;;;22.27;11.63;;;;;;;;;;5042286;28;20025;-46
2022/01/30 07:00:52;;;;;;;22.98;11.55;;;;;;;;;;5050119;28;20079;-45
2022/01/30 07:03:18;;;;;;;23.52;12.73;;;;;;;;;;5050485;28;20048;-47
2022/01/30 07:05:44;;;;;;;21.90;10.98;;;;;;;;;;5050187;28;20135;-48
2022/01/30 07:08:10;;;;;;;23.27;11.77;;;;;;;;;;5037267;28;20126;-47
2022/01/30 07:10:38;;;;;;;21.83;11.52;;;;;;;;;;5031528;28;20036;-49
2022/01/30 07:13:04;;;;;;;23.20;12.07;;;;;;;;;;5031804;28;20384;-49
2022/01/30 07:15:30;;;;;;;22.65;11.07;;;;;;;;;;5031121;28;20607;-47
2022/01/30 07:17:56;;;;;;;20.40;11.68;;;;;;;;;;5030764;28;20028;-47
2022/01/30 07:20:22;;;;;;;24.50;12.50;;;;;;;;;;5039344;28;20108;-47
2022/01/30 07:22:49;;;;;;;20.58;10.55;;;;;;;;;;5032501;28;20030;-47
2022/01/30 07:25:15;;;;;;;21.23;11.73;;;;;;;;;;5036806;28;20484;-49
2022/01/30 07:27:42;;;;;;;21.67;11.32;;;;;;;;;;5057891;28;20507;-46
2022/01/30 07:30:08;;;;;;;20.63;10.75;;;;;;;;;;5032412;28;20128;-46
2022/01/30 07:32:34;;;;;;;21.42;11.05;;;;;;;;;;5031316;28;20033;-46
2022/01/30 07:35:01;;;;;;;21.30;12.38;;;;;;;;;;5030936;28;20241;-47
2022/01/30 07:37:27;;;;;;;23.65;12.20;;;;;;;;;;5030824;28;20025;-47
2022/01/30 07:39:58;;;;;;;25.85;12.85;;;;;;;;;;5030601;28;20033;-49
2022/01/30 07:42:24;;;;;;;23.58;12.90;;;;;;;;;;5030874;28;20080;-48
2022/01/30 07:44:50;;;;;;;26.77;14.77;;;;;;;;;;5033111;28;20035;-49
2022/01/30 07:47:16;;;;;;;26.40;13.57;;;;;;;;;;5049074;28;20493;-45
2022/01/30 07:49:42;;;;;;;22.20;12.30;;;;;;;;;;5050581;28;20548;-49
2022/01/30 07:52:09;;;;;;;22.98;11.77;;;;;;;;;;5050472;28;20092;-47
2022/01/30 07:54:35;;;;;;;20.17;11.43;;;;;;;;;;5046035;28;20090;-48
2022/01/30 07:57:02;;;;;;;19.13;10.20;;;;;;;;;;5035234;28;20028;-49
2022/01/30 07:59:28;;;;;;;20.00;10.23;;;;;;;;;;5028209;28;20041;-47
2022/01/30 08:01:56;;;;;;;18.60;9.50;;;;;;;;;;5027028;28;20128;-48
2022/01/30 08:04:22;;;;;;;17.10;9.73;;;;;;;;;;5027414;28;20112;-47
2022/01/30 08:06:49;;;;;;;19.73;10.05;;;;;;;;;;5027822;28;20507;-50
2022/01/30 08:09:16;;;;;;;17.30;9.38;;;;;;;;;;5032643;28;20098;-46
2022/01/30 08:11:42;;;;;;;17.00;9.25;;;;;;;;;;5028003;28;20029;-47
2022/01/30 08:14:08;;;;;;;17.45;9.15;;;;;;;;;;5031071;28;20090;-46
2022/01/30 08:16:34;;;;;;;13.50;7.63;;;;;;;;;;5031239;28;20040;-49
2022/01/30 08:19:00;;;;;;;14.57;8.20;;;;;;;;;;5030057;28;20026;-45
2022/01/30 08:21:27;;;;;;;16.77;8.02;;;;;;;;;;5028137;28;20022;-48
2022/01/30 08:23:54;;;;;;;13.60;7.78;;;;;;;;;;5028084;28;20120;-48
2022/01/30 08:26:20;;;;;;;13.25;7.25;;;;;;;;;;5037990;28;20032;-49
2022/01/30 08:28:46;;;;;;;11.90;6.97;;;;;;;;;;5034635;28;20095;-48
2022/01/30 08:31:12;;;;;;;12.82;7.43;;;;;;;;;;5028122;28;20034;-48
2022/01/30 08:33:39;;;;;;;12.95;6.97;;;;;;;;;;5027834;28;20021;-48
2022/01/30 08:36:05;;;;;;;14.40;7.78;;;;;;;;;;5030049;28;20029;-49
2022/01/30 08:38:31;;;;;;;14.32;7.75;;;;;;;;;;5043260;28;20029;-46
2022/01/30 08:40:57;;;;;;;14.77;7.90;;;;;;;;;;5047622;28;20025;-48
2022/01/30 08:43:24;;;;;;;13.05;7.53;;;;;;;;;;5028807;28;20437;-46
2022/01/30 08:45:50;;;;;;;13.65;7.50;;;;;;;;;;5028094;28;20041;-46
2022/01/30 08:48:18;;;;;;;15.25;7.93;;;;;;;;;;5034129;28;20511;-50
2022/01/30 08:50:44;;;;;;;14.80;7.28;;;;;;;;;;5045650;28;20103;-50
2022/01/30 08:53:10;;;;;;;11.98;6.82;;;;;;;;;;5036391;28;20532;-50
2022/01/30 08:55:36;;;;;;;13.30;7.63;;;;;;;;;;5047298;28;20021;-49
2022/01/30 08:58:08;;;;;;;16.25;8.73;;;;;;;;;;5028379;28;20018;-48
2022/01/30 09:00:38;;;;;;;14.75;8.57;;;;;;;;;;5027360;28;20273;-49
2022/01/30 09:03:05;;;;;;;16.42;8.18;;;;;;;;;;5030059;28;20025;-49
2022/01/30 09:05:32;;;;;;;14.70;8.15;;;;;;;;;;5027556;28;20040;-47
2022/01/30 09:07:59;;;;;;;13.32;7.95;;;;;;;;;;5027845;28;20041;-46
2022/01/30 09:10:25;;;;;;;15.98;7.80;;;;;;;;;;5029625;28;20124;-49
2022/01/30 09:12:51;;;;;;;14.80;8.25;;;;;;;;;;5046314;28;20112;-46
2022/01/30 09:15:18;;;;;;;14.90;7.82;;;;;;;;;;5046321;28;20036;-49
2022/01/30 09:17:45;;;;;;;13.50;7.40;;;;;;;;;;5035266;28;20489;-46
2022/01/30 09:20:12;;;;;;;15.48;8.10;;;;;;;;;;5028779;28;20049;-48
2022/01/30 09:22:38;;;;;;;12.32;7.05;;;;;;;;;;5027838;28;20481;-46
2022/01/30 09:25:05;;;;;;;13.18;6.82;;;;;;;;;;5027982;28;20037;-46
2022/01/30 09:27:32;;;;;;;14.77;8.23;;;;;;;;;;5047079;28;20117;-49
2022/01/30 09:29:58;;;;;;;16.77;7.97;;;;;;;;;;5047969;28;20029;-49
2022/01/30 09:32:24;;;;;;;15.95;8.10;;;;;;;;;;5048030;28;20459;-46
2022/01/30 09:34:50;;;;;;;15.50;8.00;;;;;;;;;;5036091;28;20140;-46
2022/01/30 09:37:17;;;;;;;14.55;7.10;;;;;;;;;;5043521;28;20029;-46
2022/01/30 09:39:43;;;;;;;17.20;8.40;;;;;;;;;;5038774;28;20421;-46
2022/01/30 09:42:10;;;;;;;19.33;9.30;;;;;;;;;;5027617;28;20044;-47
2022/01/30 09:44:39;;;;;;;19.15;8.77;;;;;;;;;;5027936;28;20035;-50
2022/01/30 09:47:06;;;;;;;19.35;10.25;;;;;;;;;;5031115;28;20021;-46
2022/01/30 09:49:32;;;;;;;18.88;9.52;;;;;;;;;;5039029;28;20037;-50
2022/01/30 09:51:59;;;;;;;21.90;10.55;;;;;;;;;;5036279;28;20096;-48
2022/01/30 09:54:25;;;;;;;23.67;10.50;;;;;;;;;;5025679;28;20440;-47
2022/01/30 09:56:51;;;;;;;21.05;10.98;;;;;;;;;;5027121;28;20033;-46
2022/01/30 09:59:18;;;;;;;23.55;11.60;;;;;;;;;;5026051;28;20036;-49
2022/01/30 10:01:44;;;;;;;20.15;9.93;;;;;;;;;;5028432;28;20057;-47
2022/01/30 10:04:10;;;;;;;21.33;10.32;;;;;;;;;;5047368;28;20024;-49
2022/01/30 10:06:53;;;;;;;18.20;9.15;;;;;;;;;;5045489;28;20561;-49
2022/01/30 10:09:23;;;;;;;20.35;9.57;;;;;;;;;;5041327;28;20041;-47
2022/01/30 10:12:00;;;;;;;17.67;8.88;;;;;;;;;;5047637;28;20021;-46
2022/01/30 10:14:26;;;;;;;16.50;8.02;;;;;;;;;;5047238;28;20036;-48
2022/01/30 10:16:52;;;;;;;15.90;8.30;;;;;;;;;;5031028;28;20036;-46
2022/01/30 10:19:20;;;;;;;14.43;7.95;;;;;;;;;;5027756;28;20076;-45
2022/01/30 10:21:50;;;;;;;16.08;7.95;;;;;;;;;;5028986;28;20030;-47
2022/01/30 10:24:20;;;;;;;13.85;7.40;;;;;;;;;;5026788;28;20033;-48
2022/01/30 10:26:47;;;;;;;16.40;7.38;;;;;;;;;;5038513;28;20095;-49
2022/01/30 10:29:23;;;;;;;14.25;7.28;;;;;;;;;;5045296;28;20115;-49
2022/01/30 10:32:06;;;;;;;11.45;6.45;;;;;;;;;;5035235;28;20039;-50
2022/01/30 10:34:35;;;;;;;14.98;7.45;;;;;;;;;;5027554;28;20060;-48
2022/01/30 10:37:21;;;;;;;13.57;7.30;;;;;;;;;;5029872;28;20061;-49
2022/01/30 10:39:59;;;;;;;16.63;8.20;;;;;;;;;;5030986;28;20025;-46
2022/01/30 10:42:34;;;;;;;14.63;7.65;;;;;;;;;;5039656;28;20029;-46
2022/01/30 10:45:00;;;;;;;19.25;9.65;;;;;;;;;;5033780;28;20024;-45
2022/01/30 10:47:29;;;;;;;19.60;9.60;;;;;;;;;;5032969;28;20025;-50
2022/01/30 10:49:56;;;;;;;17.83;9.40;;;;;;;;;;5044786;28;20025;-48
2022/01/30 10:52:23;;;;;;;15.85;7.68;;;;;;;;;;5065508;28;20019;-45
2022/01/30 10:54:50;;;;;;;16.83;8.20;;;;;;;;;;5046545;28;20055;-50
2022/01/30 10:57:17;;;;;;;14.57;7.78;;;;;;;;;;5054359;28;20032;-50
2022/01/30 10:59:52;;;;;;;13.40;7.25;;;;;;;;;;5026500;28;20456;-47
2022/01/30 11:02:20;;;;;;;13.07;7.32;;;;;;;;;;5027422;28;20032;-47
2022/01/30 11:04:47;;;;;;;12.38;6.65;;;;;;;;;;5026130;28;20104;-48
2022/01/30 11:07:16;;;;;;;12.70;6.95;;;;;;;;;;5026687;28;20052;-47
2022/01/30 11:09:55;;;;;;;11.48;6.00;;;;;;;;;;5026056;28;20029;-48
2022/01/30 11:12:31;;;;;;;13.90;7.20;;;;;;;;;;5030066;28;20040;-46
2022/01/30 11:15:15;;;;;;;10.13;6.32;;;;;;;;;;5044990;28;20034;-47
2022/01/30 11:17:41;;;;;;;11.95;6.72;;;;;;;;;;5025384;28;20025;-48
2022/01/30 11:20:08;;;;;;;13.43;6.90;;;;;;;;;;5040201;28;20462;-49
2022/01/30 11:22:35;;;;;;;10.73;6.50;;;;;;;;;;5033501;28;20021;-49
2022/01/30 11:25:03;;;;;;;12.32;6.45;;;;;;;;;;5034059;28;20096;-47
2022/01/30 11:27:29;;;;;;;10.98;6.28;;;;;;;;;;5026278;28;20084;-47
2022/01/30 11:29:55;;;;;;;9.73;5.28;;;;;;;;;;5026635;28;20028;-49
2022/01/30 11:32:22;;;;;;;11.40;5.90;;;;;;;;;;5026917;28;20125;-46
2022/01/30 11:34:48;;;;;;;9.85;5.88;;;;;;;;;;5033864;28;20040;-47
2022/01/30 11:37:18;;;;;;;13.00;6.57;;;;;;;;;;5029969;28;20096;-48
2022/01/30 11:39:45;;;;;;;12.13;6.47;;;;;;;;;;5034797;28;20021;-49
2022/01/30 11:42:12;;;;;;;13.57;6.40;;;;;;;;;;5047610;28;20397;-47
2022/01/30 11:44:40;;;;;;;13.27;6.88;;;;;;;;;;5038571;28;20025;-46
2022/01/30 11:47:07;;;;;;;11.93;6.32;;;;;;;;;;5038518;28;20031;-50
2022/01/30 11:49:41;;;;;;;12.95;6.93;;;;;;;;;;5041951;28;20033;-47
2022/01/30 11:52:12;;;;;;;11.77;6.50;;;;;;;;;;5028964;28;20455;-46
2022/01/30 11:54:52;;;;;;;11.68;6.57;;;;;;;;;;5030743;28;20427;-47
2022/01/30 11:57:18;;;;;;;11.20;6.28;;;;;;;;;;5032749;28;20061;-47
2022/01/30 11:59:45;;;;;;;11.98;6.70;;;;;;;;;;5059492;28;20531;-49
2022/01/30 12:02:20;;;;;;;11.27;6.25;;;;;;;;;;5060307;28;20874;-45
2022/01/30 12:04:56;;;;;;;12.82;6.40;;;;;;;;;;5042699;28;20029;-50
2022/01/30 12:07:42;;;;;;;10.32;5.65;;;;;;;;;;5029633;28;20041;-47
2022/01/30 12:10:20;;;;;;;10.68;6.03;;;;;;;;;;5029666;28;20104;-50
2022/01/30 12:12:47;;;;;;;10.60;5.28;;;;;;;;;;5029467;28;20033;-49
2022/01/30 12:15:32;;;;;;;9.50;5.43;;;;;;;;;;5056802;28;20155;-49
2022/01/30 12:17:58;;;;;;;9.65;5.60;;;;;;;;;;5044964;28;20048;-46
2022/01/30 12:20:25;;;;;;;10.43;5.25;;;;;;;;;;5031394;28;20022;-48
2022/01/30 12:22:52;;;;;;;9.02;4.80;;;;;;;;;;5028629;28;20022;-46
2022/01/30 12:25:28;;;;;;;8.25;4.82;;;;;;;;;;5040446;28;20053;-48
2022/01/30 12:27:55;;;;;;;8.77;4.60;;;;;;;;;;5043599;28;20044;-49
2022/01/30 12:30:31;;;;;;;8.68;4.80;;;;;;;;;;5041399;28;20032;-49
2022/01/30 12:32:58;;;;;;;8.75;4.38;;;;;;;;;;5040209;28;20026;-50
2022/01/30 12:35:24;;;;;;;7.65;4.25;;;;;;;;;;5028460;28;20108;-47
2022/01/30 12:37:51;;;;;;;9.68;5.03;;;;;;;;;;5030010;28;20029;-50
2022/01/30 12:40:18;;;;;;;9.10;4.90;;;;;;;;;;5043942;28;20059;-50
2022/01/30 12:42:44;;;;;;;8.90;5.47;;;;;;;;;;5028359;28;20428;-47
2022/01/30 12:45:14;;;;;;;9.32;5.20;;;;;;;;;;5028699;28;20034;-49
2022/01/30 12:47:50;;;;;;;7.30;4.47;;;;;;;;;;5029449;28;20051;-47
2022/01/30 12:50:17;;;;;;;6.50;3.83;;;;;;;;;;5032588;28;20056;-51
2022/01/30 12:52:48;;;;;;;4.70;2.92;;;;;;;;;;5047919;28;20029;-47
2022/01/30 12:55:16;;;;;;;4.45;2.60;;;;;;;;;;5033721;28;20030;-50
2022/01/30 12:57:43;;;;;;;4.03;2.58;;;;;;;;;;5027693;28;20150;-49
2022/01/30 13:00:10;;;;;;;3.47;2.20;;;;;;;;;;5047906;28;20017;-50
2022/01/30 13:02:37;;;;;;;3.60;2.30;;;;;;;;;;5046769;28;20025;-48
2022/01/30 13:05:03;;;;;;;3.38;2.10;;;;;;;;;;5028691;28;20022;-50
2022/01/30 13:07:29;;;;;;;2.70;1.52;;;;;;;;;;5026322;28;20392;-50
2022/01/30 13:10:12;;;;;;;1.70;1.35;;;;;;;;;;5026895;28;20029;-50
2022/01/30 13:12:39;;;;;;;1.70;1.40;;;;;;;;;;5028132;28;20021;-50
2022/01/30 13:15:12;;;;;;;1.25;1.10;;;;;;;;;;5038911;28;20025;-47
2022/01/30 13:17:39;;;;;;;1.33;1.20;;;;;;;;;;5047416;28;20024;-48
2022/01/30 13:20:06;;;;;;;1.70;1.42;;;;;;;;;;5035555;28;20021;-47
2022/01/30 13:22:38;;;;;;;1.58;1.10;;;;;;;;;;5053787;28;20670;-48
2022/01/30 13:25:05;;;;;;;1.00;0.93;;;;;;;;;;5047667;28;20025;-48
2022/01/30 13:27:32;;;;;;;1.52;1.10;;;;;;;;;;5047321;28;20021;-49
2022/01/30 13:29:58;;;;;;;1.30;1.05;;;;;;;;;;5047547;28;20074;-49
2022/01/30 13:32:25;;;;;;;1.50;1.20;;;;;;;;;;5044403;28;20100;-49
2022/01/30 13:34:53;;;;;;;1.95;1.50;;;;;;;;;;5047846;28;20021;-48
2022/01/30 13:37:20;;;;;;;2.17;1.17;;;;;;;;;;5048250;28;20021;-48
2022/01/30 13:47:55;;;;;;;1.42;1.13;;;;;;;;;;5026498;28;20163;-47
2022/01/30 13:50:24;;;;;;;1.92;1.30;;;;;;;;;;5039628;28;20037;-46
2022/01/30 13:52:59;;;;;;;3.05;1.90;;;;;;;;;;5046938;28;20492;-46
2022/01/30 13:55:26;;;;;;;2.78;2.25;;;;;;;;;;5046342;28;20033;-50
2022/01/30 13:57:56;;;;;;;3.13;1.75;;;;;;;;;;5046632;28;20013;-45
2022/01/30 14:00:22;;;;;;;3.33;1.83;;;;;;;;;;5046425;28;20025;-46
2022/01/30 14:02:56;;;;;;;3.60;2.05;;;;;;;;;;5052874;28;20017;-47
2022/01/30 14:05:24;;;;;;;1.92;1.60;;;;;;;;;;5041745;28;20033;-46
2022/01/30 14:07:51;;;;;;;2.58;1.73;;;;;;;;;;5027293;28;20041;-46
2022/01/30 14:10:18;;;;;;;2.33;1.70;;;;;;;;;;5031968;28;20028;-46
2022/01/30 14:12:44;;;;;;;1.98;1.40;;;;;;;;;;5026597;28;20374;-48
2022/01/30 14:15:12;;;;;;;2.20;1.52;;;;;;;;;;5044006;28;20490;-46
2022/01/30 14:17:43;;;;;;;2.15;1.60;;;;;;;;;;5031676;28;21212;-48
2022/01/30 14:20:12;;;;;;;2.92;1.77;;;;;;;;;;5043336;28;20028;-50
2022/01/30 14:22:38;;;;;;;2.28;1.80;;;;;;;;;;5027501;28;20087;-46
2022/01/30 14:25:06;;;;;;;2.28;1.75;;;;;;;;;;5031252;28;20515;-46
2022/01/30 14:27:37;;;;;;;2.50;1.60;;;;;;;;;;5034675;28;20025;-48
2022/01/30 14:30:05;;;;;;;3.13;2.10;;;;;;;;;;5031364;28;20116;-47
2022/01/30 14:32:33;;;;;;;2.90;2.15;;;;;;;;;;5033273;28;20033;-47
2022/01/30 14:35:00;;;;;;;3.00;2.50;;;;;;;;;;5028166;28;20025;-47
2022/01/30 14:37:27;;;;;;;2.78;1.98;;;;;;;;;;5035024;28;20026;-46
2022/01/30 14:39:54;;;;;;;2.35;2.00;;;;;;;;;;5039987;28;20021;-48
2022/01/30 14:42:20;;;;;;;2.58;2.15;;;;;;;;;;5034982;28;20025;-47
2022/01/30 14:44:46;;;;;;;3.03;2.22;;;;;;;;;;5037210;28;20032;-46
2022/01/30 14:47:12;;;;;;;2.53;2.00;;;;;;;;;;5035663;28;20041;-47
2022/01/30 14:49:39;;;;;;;1.85;1.55;;;;;;;;;;5033826;28;20082;-46
2022/01/30 14:52:06;;;;;;;2.70;1.88;;;;;;;;;;5034811;28;20061;-47
2022/01/30 14:54:32;;;;;;;2.00;1.45;;;;;;;;;;5027411;28;20107;-50
2022/01/30 14:56:58;;;;;;;2.47;1.85;;;;;;;;;;5038076;28;20064;-47
2022/01/30 14:59:25;;;;;;;3.33;1.83;;;;;;;;;;5029843;28;20503;-50
2022/01/30 15:01:51;;;;;;;2.03;1.58;;;;;;;;;;5032772;28;20029;-47
2022/01/30 15:04:17;;;;;;;2.25;1.67;;;;;;;;;;5035828;28;20482;-49
2022/01/30 15:06:43;;;;;;;2.60;1.85;;;;;;;;;;5030215;28;20041;-46
2022/01/30 15:09:10;;;;;;;3.20;1.98;;;;;;;;;;5039844;28;20029;-48
2022/01/30 15:11:36;;;;;;;3.20;2.28;;;;;;;;;;5037661;28;20509;-48
2022/01/30 15:14:03;;;;;;;3.42;2.15;;;;;;;;;;5031685;28;21697;-50
2022/01/30 15:19:07;;;;;;;4.50;2.15;;;;;;;;;;5034506;28;20132;-47
2022/01/30 15:21:34;;;;;;;2.30;1.70;;;;;;;;;;5045066;28;20029;-47
2022/01/30 15:24:00;;;;;;;2.70;1.75;;;;;;;;;;5015249;28;20052;-47
2022/01/30 15:26:26;;;;;;;3.13;1.73;;;;;;;;;;5043636;28;20180;-47
2022/01/30 15:28:51;;;;;;;3.15;1.92;;;;;;;;;;5043496;28;20470;-46
2022/01/30 15:31:18;;;;;;;1.70;1.50;;;;;;;;;;5037379;28;20029;-50
2022/01/30 15:33:45;;;;;;;3.20;1.70;;;;;;;;;;5036033;28;20036;-50
2022/01/30 15:36:11;;;;;;;1.65;1.27;;;;;;;;;;5041278;28;20040;-50